Terminal Aerodrome Forecast
Issued by NWS

Home | Current Version | Previous Version | Text Only | Print | Product List | Glossary Off
Versions: 1 2 3 4 5 6 7 8 9 10 11 12 13

000
FTUS43 KBIS 151100
TAFMOT
TAF
KMOT 151136Z 1512/1612 22006KT P6SM SKC
     FM151900 25011KT P6SM FEW160
     FM160100 23004KT P6SM SKC=

USA.gov is the U.S. government's official web portal to all federal, state and local government web resources and services.